Terminal Aerodrome Forecast
Issued by NWS Caribou, ME

Home | Current Version | Previous Version | Text Only | Print | Product List | Glossary On
Versions: 1 2 3 4 5 6 7 8 9 10 11 12 13 14
000
FTUS41 KCAR 221700 RRA
TAFBGR
TAF
KBGR 221744Z 2218/2318 21010KT P6SM FEW250
     FM230200 20005KT P6SM FEW200
     FM230500 VRB02KT P6SM SCT150
     FM231200 20006KT P6SM FEW250
     FM231500 20012KT P6SM SCT050 BKN200=

USA.gov is the U.S. government's official web portal to all federal, state and local government web resources and services.